Terminal Aerodrome Forecast
Issued by NWS

Home | Current Version | Previous Version | Text Only | Print | Product List | Glossary On
Versions: 1 2 3 4 5 6 7 8 9 10 11 12 13 14 15 16 17 18 19 20 21 22 23 24 25 26 27 28 29 30 31 32 33 34 35 36 37
000
FTUS43 KDLH 011300 AAA
TAFHYR
TAF AMD
KHYR 011349Z 0114/0212 22006KT 6SM -RA BR BKN006 OVC100
     FM011600 26006KT P6SM BKN020 OVC050
     FM011800 26010KT P6SM BKN040
     FM012200 26007KT P6SM SCT050
     FM020700 VRB02KT 6SM BR BKN050=

USA.gov is the U.S. government's official web portal to all federal, state and local government web resources and services.